Newcastle, TX (76372)

3:59 PM CST on March 01, 2015 (GMT -0600)
DDR Longhorns Graham, Texas | Change Station
CLOSE
Current Station
Personal Weather Station
Location: Graham, TX
Elevation: 1178 ft
Nearby Weather Stations

Elev 1178 ft 33.18 °N, 98.67 °W | Updated 5 seconds ago

Overcast
Overcast
32.5 °F
Feels Like 29 °F
N
4.0
Wind Variable Wind from NE
Gusts 10.0 mph

Today
High -- | Low -- °F
--% Chance of Precip.
Yesterday
High -- | Low -- °F
Precip. -- in
7:03 AM 6:32 PM
Waxing Gibbous, 87% visible
Pressure 30.33 in
Visibility 7.0 miles
Clouds Overcast 600 ft
Windchill 29 °F
Dew Point 31 °F
Humidity 92%
Rainfall 0.11 in
Snow Depth Not available.
UV 1 out of 12
Pollen 7.00 out of 12
Air Quality Not available.
Flu Activity Not available.
METAR KRPH 012135Z AUTO 34007KT 7SM OVC006 01/00 A3033 RMK AO2 T00060000

More Conditions Fewer Conditions

Pressure 30.33 in
Visibility 7.0 miles
Clouds Overcast 600 ft
Windchill 29 °F
Dew Point 31 °F
Humidity 92%
Rainfall 0.11 in
Snow Depth Not available.
UV 1 out of 12
Pollen 7.00 out of 12
Air Quality Not available.
Flu Activity Not available.
METAR KRPH 012135Z AUTO 34007KT 7SM OVC006 01/00 A3033 RMK AO2 T00060000

More Conditions Fewer Conditions

Nowcast | as of 2:04 PM CST on March 1, 2015

Patches of light rain and areas of light drizzle will continue off and on through the afternoon. Rainfall will range for a trace to a few hundredths of inch before sunset. Otherwise...it will remain cloudy and damp with temperatures remaining in the mid 30s in the northwest to the mid 40s in the southeast. North winds of 10 to 15 mph will push wind chills into the mid to upper 20s northwest of a line from Sherman to dfw to Goldthwaite. Elsewhere...wind chills will be in the 30s.

×

10-Day Weather Forecast

Almanac

Astronomy

Mar. 01, 2015 Rise Set
Actual Time
Civil Twilight
Nautical Twilight
Astronomical Twilight
Moon
Length of Visible Light
Length of Day
Tomorrow will be .
, % of the Moon is Illuminated

Today's Extremes

State Highs State Lows

Community

WunderPhotos

Upload Photos

1,801,577 photos uploaded!

WunderBlogs® & News

Nearby

Air Quality

  Air Quality AQ Index Pollutant
Not available.

Snow Depth

Station Depth Elevation

Earthquake Activity

City Distance Mag. Time & Date
Minimum magnitude displayed is 2.5.

Coastal Water Temperatures

Place Temperature

Nearby Weather Stations